KISM/ISM METAR and TAF weather

Enter ICAO airport designator
Station Type Date Time Source
KISM METAR 2022/06/25 22:50 UTC NOAA

KISM 252250Z 00000KT 3SM -TSRA BR FEW017 BKN028 OVC050 26/23 A3002 RMK AO2 PK WND 09032/2236 LTG DSNT S-W PNO $


Station Type Date Time Source
KISM Decoded METAR 2022/06/25 22:50 UTC NOAA

Orlando, Kissimmee Municipal Airport, FL, United States (KISM) 28-17-23N 081-26-14W
Jun 25, 2022 - 06:50 PM EDT / 2022.06.25 2250 UTC
Wind: Calm:0
Visibility: 3 mile(s):0
Sky conditions: overcast
Weather: light rain with thunder; mist; Lightning observed
Temperature: 78 F (26 C)
Dew Point: 73 F (23 C)
Relative Humidity: 83%
Pressure (altimeter): 30.02 in. Hg (1016 hPa)
ob: KISM 252250Z 00000KT 3SM -TSRA BR FEW017 BKN028 OVC050 26/23 A3002 RMK AO2 PK WND 09032/2236 LTG DSNT S-W PNO
cycle: 23

Station Type Date Time Source
KISM TAF 2022/06/25 18:45 UTC NOAA

TAF KISM 252141Z 2518/2618 03012KT P6SM VCTS SCT035CB BKN050 BKN200
TEMPO 2521/2523 3SM TSRA BKN030CB
FM260000 04006KT P6SM FEW030 SCT100 BKN200
FM261400 06006KT P6SM SCT035 BKN100

Example: see airport list